sensor_id;sensor_type;location;lat;lon;timestamp;pressure;altitude;pressure_sealevel;temperature;humidity
1776;BME280;885;42.626;23.200;2022-12-18T00:01:20;167339.88;;;8.07;100.00
1776;BME280;885;42.626;23.200;2022-12-18T00:03:47;167295.84;;;7.90;100.00
1776;BME280;885;42.626;23.200;2022-12-18T00:06:19;167306.84;;;7.94;100.00
1776;BME280;885;42.626;23.200;2022-12-18T00:08:46;167266.94;;;7.80;100.00
1776;BME280;885;42.626;23.200;2022-12-18T00:11:19;167257.34;;;7.76;100.00
1776;BME280;885;42.626;23.200;2022-12-18T00:13:47;167273.84;;;7.82;100.00
1776;BME280;885;42.626;23.200;2022-12-18T00:16:19;167328.88;;;8.02;100.00
1776;BME280;885;42.626;23.200;2022-12-18T00:18:46;167282.06;;;7.85;100.00
1776;BME280;885;42.626;23.200;2022-12-18T00:21:13;167315.13;;;7.97;100.00
1776;BME280;885;42.626;23.200;2022-12-18T00:23:44;167363.28;;;8.15;100.00
1776;BME280;885;42.626;23.200;2022-12-18T00:26:13;167381.19;;;8.22;100.00
1776;BME280;885;42.626;23.200;2022-12-18T00:28:46;167386.69;;;8.24;100.00
1776;BME280;885;42.626;23.200;2022-12-18T00:31:15;167378.47;;;8.21;100.00
1776;BME280;885;42.626;23.200;2022-12-18T00:33:45;167425.34;;;8.38;100.00
1776;BME280;885;42.626;23.200;2022-12-18T00:36:13;167417.06;;;8.35;100.00
1776;BME280;885;42.626;23.200;2022-12-18T00:38:45;167350.88;;;8.11;100.00
1776;BME280;885;42.626;23.200;2022-12-18T00:41:13;167339.88;;;8.07;100.00
1776;BME280;885;42.626;23.200;2022-12-18T00:44:06;167324.75;;;8.01;100.00
1776;BME280;885;42.626;23.200;2022-12-18T00:46:32;167284.84;;;7.86;100.00
1776;BME280;885;42.626;23.200;2022-12-18T00:48:59;167331.66;;;8.03;100.00
1776;BME280;885;42.626;23.200;2022-12-18T00:51:26;167312.34;;;7.96;100.00
1776;BME280;885;42.626;23.200;2022-12-18T00:53:53;167322.03;;;8.00;100.00
1776;BME280;885;42.626;23.200;2022-12-18T00:56:20;167242.16;;;7.71;100.00
1776;BME280;885;42.626;23.200;2022-12-18T00:58:46;167253.22;;;7.75;100.00
1776;BME280;885;42.626;23.200;2022-12-18T01:01:17;167323.38;;;8.00;100.00
1776;BME280;885;42.626;23.200;2022-12-18T01:03:45;167333.03;;;8.04;100.00
1776;BME280;885;42.626;23.200;2022-12-18T01:06:13;167339.88;;;8.07;100.00
1776;BME280;885;42.626;23.200;2022-12-18T01:08:43;167312.34;;;7.96;100.00
1776;BME280;885;42.626;23.200;2022-12-18T01:11:12;167310.97;;;7.96;100.00
1776;BME280;885;42.626;23.200;2022-12-18T01:13:39;167276.56;;;7.83;100.00
1776;BME280;885;42.626;23.200;2022-12-18T01:16:07;167229.81;;;7.66;100.00
1776;BME280;885;42.626;23.200;2022-12-18T01:18:35;167265.56;;;7.79;100.00
1776;BME280;885;42.626;23.200;2022-12-18T01:21:06;167271.06;;;7.81;100.00
1776;BME280;885;42.626;23.200;2022-12-18T01:23:33;167273.84;;;7.82;100.00
1776;BME280;885;42.626;23.200;2022-12-18T01:26:04;167229.81;;;7.66;100.00
1776;BME280;885;42.626;23.200;2022-12-18T01:28:31;167203.63;;;7.57;100.00
1776;BME280;885;42.626;23.200;2022-12-18T01:31:09;167240.81;;;7.70;100.00
1776;BME280;885;42.626;23.200;2022-12-18T01:33:38;167224.31;;;7.64;100.00
1776;BME280;885;42.626;23.200;2022-12-18T01:36:05;167141.75;;;7.34;100.00
1776;BME280;885;42.626;23.200;2022-12-18T01:38:32;167130.75;;;7.30;100.00
1776;BME280;885;42.626;23.200;2022-12-18T01:40:58;167082.56;;;7.12;100.00
1776;BME280;885;42.626;23.200;2022-12-18T01:43:45;167053.69;;;7.02;100.00
1776;BME280;885;42.626;23.200;2022-12-18T01:46:13;167028.97;;;6.93;100.00
1776;BME280;885;42.626;23.200;2022-12-18T01:48:44;167019.28;;;6.89;100.00
1776;BME280;885;42.626;23.200;2022-12-18T01:51:12;166971.19;;;6.72;100.00
1776;BME280;885;42.626;23.200;2022-12-18T01:53:41;167006.97;;;6.85;100.00
1776;BME280;885;42.626;23.200;2022-12-18T01:56:10;166986.31;;;6.77;100.00
1776;BME280;885;42.626;23.200;2022-12-18T01:58:44;166884.56;;;6.40;100.00
1776;BME280;885;42.626;23.200;2022-12-18T02:01:12;166931.31;;;6.57;100.00
1776;BME280;885;42.626;23.200;2022-12-18T02:03:43;166972.59;;;6.72;100.00
1776;BME280;885;42.626;23.200;2022-12-18T02:06:15;166829.59;;;6.20;100.00
1776;BME280;885;42.626;23.200;2022-12-18T02:08:50;166876.31;;;6.37;100.00
1776;BME280;885;42.626;23.200;2022-12-18T02:11:26;166949.22;;;6.64;100.00
1776;BME280;885;42.626;23.200;2022-12-18T02:14:05;166954.69;;;6.66;100.00
1776;BME280;885;42.626;23.200;2022-12-18T02:16:39;166986.31;;;6.77;100.00
1776;BME280;885;42.626;23.200;2022-12-18T02:19:27;167033.06;;;6.94;100.00
1776;BME280;885;42.626;23.200;2022-12-18T02:22:10;167045.47;;;6.99;100.00
1776;BME280;885;42.626;23.200;2022-12-18T02:24:54;167031.69;;;6.94;100.00
1776;BME280;885;42.626;23.200;2022-12-18T02:27:26;167064.69;;;7.06;100.00
1776;BME280;885;42.626;23.200;2022-12-18T02:29:55;167094.97;;;7.17;100.00
1776;BME280;885;42.626;23.200;2022-12-18T02:32:25;167100.47;;;7.19;100.00
1776;BME280;885;42.626;23.200;2022-12-18T02:34:56;167081.22;;;7.12;100.00
1776;BME280;885;42.626;23.200;2022-12-18T02:37:24;167096.34;;;7.17;100.00
1776;BME280;885;42.626;23.200;2022-12-18T02:39:55;167099.06;;;7.18;100.00
1776;BME280;885;42.626;23.200;2022-12-18T02:42:24;167125.22;;;7.28;100.00
1776;BME280;885;42.626;23.200;2022-12-18T02:44:52;167134.84;;;7.32;100.00
1776;BME280;885;42.626;23.200;2022-12-18T02:47:21;167151.34;;;7.38;100.00
1776;BME280;885;42.626;23.200;2022-12-18T02:49:55;167093.56;;;7.16;100.00
1776;BME280;885;42.626;23.200;2022-12-18T02:52:30;167123.84;;;7.28;100.00
1776;BME280;885;42.626;23.200;2022-12-18T02:55:08;167110.13;;;7.22;100.00
1776;BME280;885;42.626;23.200;2022-12-18T02:57:46;167097.72;;;7.18;100.00
1776;BME280;885;42.626;23.200;2022-12-18T03:00:21;167066.06;;;7.06;100.00
1776;BME280;885;42.626;23.200;2022-12-18T03:02:55;167037.19;;;6.96;100.00
1776;BME280;885;42.626;23.200;2022-12-18T03:05:30;167013.78;;;6.87;100.00
1776;BME280;885;42.626;23.200;2022-12-18T03:08:02;167005.56;;;6.84;100.00
1776;BME280;885;42.626;23.200;2022-12-18T03:10:33;167050.97;;;7.01;100.00
1776;BME280;885;42.626;23.200;2022-12-18T03:13:04;167092.22;;;7.16;100.00
1776;BME280;885;42.626;23.200;2022-12-18T03:15:37;167125.22;;;7.28;100.00
1776;BME280;885;42.626;23.200;2022-12-18T03:18:08;167127.97;;;7.29;100.00
1776;BME280;885;42.626;23.200;2022-12-18T03:20:38;167111.47;;;7.23;100.00
1776;BME280;885;42.626;23.200;2022-12-18T03:23:10;167114.22;;;7.24;100.00
1776;BME280;885;42.626;23.200;2022-12-18T03:25:40;167100.47;;;7.19;100.00
1776;BME280;885;42.626;23.200;2022-12-18T03:28:12;167114.22;;;7.24;100.00
1776;BME280;885;42.626;23.200;2022-12-18T03:30:44;167107.34;;;7.21;100.00
1776;BME280;885;42.626;23.200;2022-12-18T03:33:14;167108.72;;;7.22;100.00
1776;BME280;885;42.626;23.200;2022-12-18T03:35:45;167094.97;;;7.17;100.00
1776;BME280;885;42.626;23.200;2022-12-18T03:38:12;167110.13;;;7.22;100.00
1776;BME280;885;42.626;23.200;2022-12-18T03:40:48;167111.47;;;7.23;100.00
1776;BME280;885;42.626;23.200;2022-12-18T03:43:20;167103.22;;;7.20;100.00
1776;BME280;885;42.626;23.200;2022-12-18T03:45:59;167075.72;;;7.10;100.00
1776;BME280;885;42.626;23.200;2022-12-18T03:48:32;167094.97;;;7.17;100.00
1776;BME280;885;42.626;23.200;2022-12-18T03:51:07;167045.47;;;6.99;100.00
1776;BME280;885;42.626;23.200;2022-12-18T03:53:37;167024.78;;;6.91;100.00
1776;BME280;885;42.626;23.200;2022-12-18T03:56:06;166993.19;;;6.80;100.00
1776;BME280;885;42.626;23.200;2022-12-18T03:58:35;166946.44;;;6.63;100.00
1776;BME280;885;42.626;23.200;2022-12-18T04:01:08;166991.81;;;6.79;100.00
1776;BME280;885;42.626;23.200;2022-12-18T04:03:36;166980.81;;;6.75;100.00
1776;BME280;885;42.626;23.200;2022-12-18T04:06:05;166975.31;;;6.73;100.00
1776;BME280;885;42.626;23.200;2022-12-18T04:08:33;166986.31;;;6.77;100.00
1776;BME280;885;42.626;23.200;2022-12-18T04:11:01;166998.69;;;6.82;100.00
1776;BME280;885;42.626;23.200;2022-12-18T04:13:30;166997.31;;;6.81;100.00
1776;BME280;885;42.626;23.200;2022-12-18T04:15:58;167004.19;;;6.84;100.00
1776;BME280;885;42.626;23.200;2022-12-18T04:18:26;167019.28;;;6.89;100.00
1776;BME280;885;42.626;23.200;2022-12-18T04:20:53;166998.69;;;6.82;100.00
1776;BME280;885;42.626;23.200;2022-12-18T04:23:20;167006.97;;;6.85;100.00
1776;BME280;885;42.626;23.200;2022-12-18T04:25:47;167026.19;;;6.92;100.00
1776;BME280;885;42.626;23.200;2022-12-18T04:28:18;166990.41;;;6.79;100.00
1776;BME280;885;42.626;23.200;2022-12-18T04:30:48;166954.69;;;6.66;100.00
1776;BME280;885;42.626;23.200;2022-12-18T04:33:18;166925.81;;;6.55;100.00
1776;BME280;885;42.626;23.200;2022-12-18T04:35:46;166972.59;;;6.72;100.00
1776;BME280;885;42.626;23.200;2022-12-18T04:38:13;166987.69;;;6.78;100.00
1776;BME280;885;42.626;23.200;2022-12-18T04:40:42;166998.69;;;6.82;100.00
1776;BME280;885;42.626;23.200;2022-12-18T04:43:09;166962.91;;;6.69;100.00
1776;BME280;885;42.626;23.200;2022-12-18T04:45:35;166960.19;;;6.68;100.00
1776;BME280;885;42.626;23.200;2022-12-18T04:48:03;166975.31;;;6.73;100.00
1776;BME280;885;42.626;23.200;2022-12-18T04:50:30;166998.69;;;6.82;100.00
1776;BME280;885;42.626;23.200;2022-12-18T04:52:59;167020.69;;;6.90;100.00
1776;BME280;885;42.626;23.200;2022-12-18T04:55:26;167001.47;;;6.83;100.00
1776;BME280;885;42.626;23.200;2022-12-18T04:57:52;166990.41;;;6.79;100.00
1776;BME280;885;42.626;23.200;2022-12-18T05:00:19;166979.41;;;6.75;100.00
1776;BME280;885;42.626;23.200;2022-12-18T05:02:46;166899.69;;;6.46;99.13
1776;BME280;885;42.626;23.200;2022-12-18T05:05:14;166811.72;;;6.13;98.56
1776;BME280;885;42.626;23.200;2022-12-18T05:07:45;166762.22;;;5.95;98.63
1776;BME280;885;42.626;23.200;2022-12-18T05:10:13;166704.44;;;5.74;100.00
1776;BME280;885;42.626;23.200;2022-12-18T05:12:41;166696.22;;;5.71;100.00
1776;BME280;885;42.626;23.200;2022-12-18T05:15:22;166712.72;;;5.77;100.00
1776;BME280;885;42.626;23.200;2022-12-18T05:17:49;166726.47;;;5.82;100.00
1776;BME280;885;42.626;23.200;2022-12-18T05:20:18;166715.44;;;5.78;100.00
1776;BME280;885;42.626;23.200;2022-12-18T05:22:45;166707.22;;;5.75;100.00
1776;BME280;885;42.626;23.200;2022-12-18T05:25:13;166723.69;;;5.81;100.00
1776;BME280;885;42.626;23.200;2022-12-18T05:27:44;166694.84;;;5.71;100.00
1776;BME280;885;42.626;23.200;2022-12-18T05:30:12;166701.72;;;5.73;100.00
1776;BME280;885;42.626;23.200;2022-12-18T05:32:39;166682.47;;;5.66;100.00
1776;BME280;885;42.626;23.200;2022-12-18T05:35:07;166727.81;;;5.83;100.00
1776;BME280;885;42.626;23.200;2022-12-18T05:37:35;166762.22;;;5.95;100.00
1776;BME280;885;42.626;23.200;2022-12-18T05:40:03;166723.69;;;5.81;100.00
1776;BME280;885;42.626;23.200;2022-12-18T05:42:31;166730.63;;;5.84;100.00
1776;BME280;885;42.626;23.200;2022-12-18T05:44:58;166745.75;;;5.89;100.00
1776;BME280;885;42.626;23.200;2022-12-18T05:47:26;166745.75;;;5.89;99.50
1776;BME280;885;42.626;23.200;2022-12-18T05:49:53;166756.72;;;5.93;99.66
1776;BME280;885;42.626;23.200;2022-12-18T05:52:20;166720.97;;;5.80;98.95
1776;BME280;885;42.626;23.200;2022-12-18T05:54:46;166670.09;;;5.61;99.08
1776;BME280;885;42.626;23.200;2022-12-18T05:57:13;166649.50;;;5.54;99.21
1776;BME280;885;42.626;23.200;2022-12-18T05:59:45;166657.78;;;5.57;98.79
1776;BME280;885;42.626;23.200;2022-12-18T06:02:11;166653.63;;;5.55;99.34
1776;BME280;885;42.626;23.200;2022-12-18T06:04:38;166580.84;;;5.29;100.00
1776;BME280;885;42.626;23.200;2022-12-18T06:07:05;166602.81;;;5.37;99.65
1776;BME280;885;42.626;23.200;2022-12-18T06:09:32;166655.00;;;5.56;99.38
1776;BME280;885;42.626;23.200;2022-12-18T06:11:59;166656.41;;;5.56;99.77
1776;BME280;885;42.626;23.200;2022-12-18T06:14:26;166644.03;;;5.52;99.83
1776;BME280;885;42.626;23.200;2022-12-18T06:16:54;166685.25;;;5.67;99.00
1776;BME280;885;42.626;23.200;2022-12-18T06:19:21;166698.94;;;5.72;99.97
1776;BME280;885;42.626;23.200;2022-12-18T06:21:48;166698.94;;;5.72;98.48
1776;BME280;885;42.626;23.200;2022-12-18T06:24:18;166670.09;;;5.61;97.83
1776;BME280;885;42.626;23.200;2022-12-18T06:26:45;166687.97;;;5.68;98.87
1776;BME280;885;42.626;23.200;2022-12-18T06:29:12;166663.28;;;5.59;97.25
1776;BME280;885;42.626;23.200;2022-12-18T06:31:39;166674.25;;;5.63;97.41
1776;BME280;885;42.626;23.200;2022-12-18T06:34:07;166631.66;;;5.47;97.46
1776;BME280;885;42.626;23.200;2022-12-18T06:36:34;166663.28;;;5.59;100.00
1776;BME280;885;42.626;23.200;2022-12-18T06:39:01;166705.84;;;5.75;100.00
1776;BME280;885;42.626;23.200;2022-12-18T06:41:28;166696.22;;;5.71;97.78
1776;BME280;885;42.626;23.200;2022-12-18T06:43:55;166715.44;;;5.78;97.24
1776;BME280;885;42.626;23.200;2022-12-18T06:46:21;166672.88;;;5.62;97.30
1776;BME280;885;42.626;23.200;2022-12-18T06:48:49;166716.81;;;5.79;96.49
1776;BME280;885;42.626;23.200;2022-12-18T06:51:21;166732.03;;;5.84;95.80
1776;BME280;885;42.626;23.200;2022-12-18T06:53:48;166676.97;;;5.64;95.60
1776;BME280;885;42.626;23.200;2022-12-18T06:56:17;166664.59;;;5.59;95.45
1776;BME280;885;42.626;23.200;2022-12-18T06:58:44;166660.50;;;5.58;95.82
1776;BME280;885;42.626;23.200;2022-12-18T07:01:12;166671.47;;;5.62;96.03
1776;BME280;885;42.626;23.200;2022-12-18T07:03:40;166655.00;;;5.56;95.32
1776;BME280;885;42.626;23.200;2022-12-18T07:06:13;166613.78;;;5.41;94.83
1776;BME280;885;42.626;23.200;2022-12-18T07:08:43;166664.59;;;5.59;95.76
1776;BME280;885;42.626;23.200;2022-12-18T07:11:11;166649.50;;;5.54;95.80
1776;BME280;885;42.626;23.200;2022-12-18T07:13:38;166652.28;;;5.55;95.45
1776;BME280;885;42.626;23.200;2022-12-18T07:16:07;166623.44;;;5.44;94.03
1776;BME280;885;42.626;23.200;2022-12-18T07:18:34;166644.03;;;5.52;94.29
1776;BME280;885;42.626;23.200;2022-12-18T07:21:04;166664.59;;;5.59;93.96
1776;BME280;885;42.626;23.200;2022-12-18T07:23:32;166687.97;;;5.68;92.68
1776;BME280;885;42.626;23.200;2022-12-18T07:26:04;166631.66;;;5.47;91.09
1776;BME280;885;42.626;23.200;2022-12-18T07:28:31;166644.03;;;5.52;91.12
1776;BME280;885;42.626;23.200;2022-12-18T07:31:01;166644.03;;;5.52;91.31
1776;BME280;885;42.626;23.200;2022-12-18T07:33:28;166659.13;;;5.57;91.48
1776;BME280;885;42.626;23.200;2022-12-18T07:35:55;166619.28;;;5.43;91.15
1776;BME280;885;42.626;23.200;2022-12-18T07:38:22;166715.44;;;5.78;97.96
1776;BME280;885;42.626;23.200;2022-12-18T07:40:48;166832.31;;;6.21;96.12
1776;BME280;885;42.626;23.200;2022-12-18T07:43:18;166770.50;;;5.98;88.82
1776;BME280;885;42.626;23.200;2022-12-18T07:45:45;166765.00;;;5.96;90.21
1776;BME280;885;42.626;23.200;2022-12-18T07:48:18;166765.00;;;5.96;90.21
1776;BME280;885;42.626;23.200;2022-12-18T07:50:44;166705.84;;;5.75;89.80
1776;BME280;885;42.626;23.200;2022-12-18T07:53:11;166611.06;;;5.40;89.77
1776;BME280;885;42.626;23.200;2022-12-18T07:55:40;166642.63;;;5.51;90.71
1776;BME280;885;42.626;23.200;2022-12-18T07:58:07;166631.66;;;5.47;90.80
1776;BME280;885;42.626;23.200;2022-12-18T08:00:36;166655.00;;;5.56;90.48
1776;BME280;885;42.626;23.200;2022-12-18T08:03:02;166650.91;;;5.54;91.50
1776;BME280;885;42.626;23.200;2022-12-18T08:05:29;166679.75;;;5.65;91.10
1776;BME280;885;42.626;23.200;2022-12-18T08:07:58;166682.47;;;5.66;90.94
1776;BME280;885;42.626;23.200;2022-12-18T08:10:24;166690.75;;;5.69;90.47
1776;BME280;885;42.626;23.200;2022-12-18T08:12:52;166668.75;;;5.61;90.04
1776;BME280;885;42.626;23.200;2022-12-18T08:15:18;166671.47;;;5.62;91.84
1776;BME280;885;42.626;23.200;2022-12-18T08:17:46;166635.75;;;5.49;91.84
1776;BME280;885;42.626;23.200;2022-12-18T08:20:13;166608.28;;;5.39;91.53
1776;BME280;885;42.626;23.200;2022-12-18T08:22:42;166608.28;;;5.39;91.74
1776;BME280;885;42.626;23.200;2022-12-18T08:25:09;166633.03;;;5.48;91.52
1776;BME280;885;42.626;23.200;2022-12-18T08:27:36;166650.91;;;5.54;91.16
1776;BME280;885;42.626;23.200;2022-12-18T08:30:04;166670.09;;;5.61;90.62
1776;BME280;885;42.626;23.200;2022-12-18T08:32:31;166692.13;;;5.70;91.92
1776;BME280;885;42.626;23.200;2022-12-18T08:35:04;166701.72;;;5.73;90.41
1776;BME280;885;42.626;23.200;2022-12-18T08:37:31;166655.00;;;5.56;89.80
1776;BME280;885;42.626;23.200;2022-12-18T08:39:58;166668.75;;;5.61;90.45
1776;BME280;885;42.626;23.200;2022-12-18T08:42:24;166693.47;;;5.70;91.44
1776;BME280;885;42.626;23.200;2022-12-18T08:45:09;166716.81;;;5.79;92.19
1776;BME280;885;42.626;23.200;2022-12-18T08:47:36;166730.63;;;5.84;91.07
1776;BME280;885;42.626;23.200;2022-12-18T08:50:04;166726.47;;;5.82;91.10
1776;BME280;885;42.626;23.200;2022-12-18T08:52:32;166720.97;;;5.80;91.21
1776;BME280;885;42.626;23.200;2022-12-18T08:54:58;166732.03;;;5.84;90.53
1776;BME280;885;42.626;23.200;2022-12-18T08:57:25;166683.84;;;5.67;89.66
1776;BME280;885;42.626;23.200;2022-12-18T08:59:52;166674.25;;;5.63;89.52
1776;BME280;885;42.626;23.200;2022-12-18T09:02:19;166661.88;;;5.58;91.54
1776;BME280;885;42.626;23.200;2022-12-18T09:04:46;166676.97;;;5.64;91.59
1776;BME280;885;42.626;23.200;2022-12-18T09:07:18;166692.13;;;5.70;92.21
1776;BME280;885;42.626;23.200;2022-12-18T09:09:45;166733.34;;;5.85;92.30
1776;BME280;885;42.626;23.200;2022-12-18T09:12:11;166767.72;;;5.97;91.63
1776;BME280;885;42.626;23.200;2022-12-18T09:14:38;166802.06;;;6.10;91.45
1776;BME280;885;42.626;23.200;2022-12-18T09:17:05;166826.84;;;6.19;91.05
1776;BME280;885;42.626;23.200;2022-12-18T09:19:32;166839.22;;;6.23;90.68
1776;BME280;885;42.626;23.200;2022-12-18T09:21:58;166837.81;;;6.23;91.31
1776;BME280;885;42.626;23.200;2022-12-18T09:24:26;166846.09;;;6.26;91.30
1776;BME280;885;42.626;23.200;2022-12-18T09:26:53;166879.06;;;6.38;90.22
1776;BME280;885;42.626;23.200;2022-12-18T09:29:21;166902.44;;;6.47;90.28
1776;BME280;885;42.626;23.200;2022-12-18T09:31:48;166909.34;;;6.49;91.45
1776;BME280;885;42.626;23.200;2022-12-18T09:34:17;166916.16;;;6.52;91.06
1776;BME280;885;42.626;23.200;2022-12-18T09:36:46;166927.16;;;6.56;90.94
1776;BME280;885;42.626;23.200;2022-12-18T09:39:13;166918.94;;;6.53;91.59
1776;BME280;885;42.626;23.200;2022-12-18T09:41:44;166896.94;;;6.45;91.87
1776;BME280;885;42.626;23.200;2022-12-18T09:44:19;166894.19;;;6.43;91.59
1776;BME280;885;42.626;23.200;2022-12-18T09:46:51;166921.66;;;6.54;91.74
1776;BME280;885;42.626;23.200;2022-12-18T09:49:23;166945.03;;;6.62;92.16
1776;BME280;885;42.626;23.200;2022-12-18T09:51:55;166962.91;;;6.69;91.45
1776;BME280;885;42.626;23.200;2022-12-18T09:54:26;166979.41;;;6.75;91.48
1776;BME280;885;42.626;23.200;2022-12-18T09:56:57;167023.47;;;6.91;90.96
1776;BME280;885;42.626;23.200;2022-12-18T09:59:27;167055.06;;;7.02;90.44
1776;BME280;885;42.626;23.200;2022-12-18T10:01:57;167093.56;;;7.16;89.06
1776;BME280;885;42.626;23.200;2022-12-18T10:04:24;167103.22;;;7.20;88.32
1776;BME280;885;42.626;23.200;2022-12-18T10:06:55;167123.84;;;7.28;89.38
1776;BME280;885;42.626;23.200;2022-12-18T10:09:31;167166.53;;;7.43;87.29
1776;BME280;885;42.626;23.200;2022-12-18T10:12:07;167178.91;;;7.48;87.54
1776;BME280;885;42.626;23.200;2022-12-18T10:14:40;167207.75;;;7.58;87.18
1776;BME280;885;42.626;23.200;2022-12-18T10:17:18;167210.53;;;7.59;85.72
1776;BME280;885;42.626;23.200;2022-12-18T10:19:52;167202.25;;;7.56;86.76
1776;BME280;885;42.626;23.200;2022-12-18T10:22:26;167211.91;;;7.60;84.90
1776;BME280;885;42.626;23.200;2022-12-18T10:25:04;167231.16;;;7.67;83.59
1776;BME280;885;42.626;23.200;2022-12-18T10:27:34;167196.75;;;7.54;84.68
1776;BME280;885;42.626;23.200;2022-12-18T10:30:12;167187.13;;;7.51;84.48
1776;BME280;885;42.626;23.200;2022-12-18T10:32:39;167166.53;;;7.43;84.83
1776;BME280;885;42.626;23.200;2022-12-18T10:35:11;167162.34;;;7.42;85.29
1776;BME280;885;42.626;23.200;2022-12-18T10:38:02;167048.19;;;7.00;84.12
1776;BME280;885;42.626;23.200;2022-12-18T10:40:29;167050.97;;;7.01;85.08
1776;BME280;885;42.626;23.200;2022-12-18T10:43:11;167081.22;;;7.12;84.78
1776;BME280;885;42.626;23.200;2022-12-18T10:45:38;167061.94;;;7.05;84.22
1776;BME280;885;42.626;23.200;2022-12-18T10:48:18;167055.06;;;7.02;83.73
1776;BME280;885;42.626;23.200;2022-12-18T10:50:47;167033.06;;;6.94;84.08
1776;BME280;885;42.626;23.200;2022-12-18T10:53:19;166993.19;;;6.80;84.57
1776;BME280;885;42.626;23.200;2022-12-18T10:55:47;166918.94;;;6.53;84.84
1776;BME280;885;42.626;23.200;2022-12-18T10:58:24;166913.44;;;6.51;86.23
1776;BME280;885;42.626;23.200;2022-12-18T11:01:06;166903.84;;;6.47;85.17
1776;BME280;885;42.626;23.200;2022-12-18T11:03:34;166910.66;;;6.50;84.47
1776;BME280;885;42.626;23.200;2022-12-18T11:06:04;166846.09;;;6.26;84.47
1776;BME280;885;42.626;23.200;2022-12-18T11:08:31;166712.72;;;5.77;84.97
1776;BME280;885;42.626;23.200;2022-12-18T11:10:58;166687.97;;;5.68;84.36
1776;BME280;885;42.626;23.200;2022-12-18T11:13:28;166637.16;;;5.49;83.04
1776;BME280;885;42.626;23.200;2022-12-18T11:15:56;166561.59;;;5.22;83.12
1776;BME280;885;42.626;23.200;2022-12-18T11:18:26;166601.41;;;5.36;83.36
1776;BME280;885;42.626;23.200;2022-12-18T11:20:55;166657.78;;;5.57;86.27
1776;BME280;885;42.626;23.200;2022-12-18T11:23:23;166655.00;;;5.56;81.67
1776;BME280;885;42.626;23.200;2022-12-18T11:25:52;166619.28;;;5.43;79.07
1776;BME280;885;42.626;23.200;2022-12-18T11:28:34;166617.94;;;5.42;79.54
1776;BME280;885;42.626;23.200;2022-12-18T11:31:25;166535.34;;;5.13;79.84
1776;BME280;885;42.626;23.200;2022-12-18T11:34:00;166550.59;;;5.18;79.64
1776;BME280;885;42.626;23.200;2022-12-18T11:36:30;166556.09;;;5.20;80.34
1776;BME280;885;42.626;23.200;2022-12-18T11:39:02;166536.75;;;5.14;80.35
1776;BME280;885;42.626;23.200;2022-12-18T11:41:32;166586.31;;;5.31;81.37
1776;BME280;885;42.626;23.200;2022-12-18T11:44:25;166588.94;;;5.33;79.41
1776;BME280;885;42.626;23.200;2022-12-18T11:46:59;166628.78;;;5.47;78.90
1776;BME280;885;42.626;23.200;2022-12-18T11:49:33;166553.22;;;5.20;78.72
1776;BME280;885;42.626;23.200;2022-12-18T11:52:03;166104.69;;;4.90;79.63
1776;BME280;885;42.626;23.200;2022-12-18T11:54:31;166538.13;;;5.14;80.06
1776;BME280;885;42.626;23.200;2022-12-18T11:57:06;166573.84;;;5.27;80.83
1776;BME280;885;42.626;23.200;2022-12-18T11:59:46;166632.88;;;5.49;79.78
1776;BME280;885;42.626;23.200;2022-12-18T12:02:38;166643.88;;;5.53;79.18
1776;BME280;885;42.626;23.200;2022-12-18T12:05:24;166608.19;;;5.40;79.76
1776;BME280;885;42.626;23.200;2022-12-18T12:07:55;166642.53;;;5.52;80.84
1776;BME280;885;42.626;23.200;2022-12-18T12:10:36;166616.41;;;5.43;79.39
1776;BME280;885;42.626;23.200;2022-12-18T12:13:18;166211.53;;;5.29;78.53
1776;BME280;885;42.626;23.200;2022-12-18T12:15:57;166243.03;;;5.41;79.55
1776;BME280;885;42.626;23.200;2022-12-18T12:18:36;166659.00;;;5.58;79.88
1776;BME280;885;42.626;23.200;2022-12-18T12:21:15;166660.41;;;5.59;79.73
1776;BME280;885;42.626;23.200;2022-12-18T12:23:53;166704.34;;;5.75;78.91
1776;BME280;885;42.626;23.200;2022-12-18T12:26:31;166727.75;;;5.84;79.70
1776;BME280;885;42.626;23.200;2022-12-18T12:29:07;166734.66;;;5.86;79.46
1776;BME280;885;42.626;23.200;2022-12-18T12:32:00;166362.31;;;5.85;76.57
1776;BME280;885;42.626;23.200;2022-12-18T12:34:36;166363.72;;;5.85;78.19
1776;BME280;885;42.626;23.200;2022-12-18T12:37:18;166374.66;;;5.89;76.48
1776;BME280;885;42.626;23.200;2022-12-18T12:39:47;165981.88;;;5.80;76.85
1776;BME280;885;42.626;23.200;2022-12-18T12:42:18;165970.88;;;5.76;78.01
1776;BME280;885;42.626;23.200;2022-12-18T12:45:06;165981.88;;;5.80;78.02
1776;BME280;885;42.626;23.200;2022-12-18T12:47:37;165965.41;;;5.74;78.81
1776;BME280;885;42.626;23.200;2022-12-18T12:50:13;165935.38;;;5.63;78.63
1776;BME280;885;42.626;23.200;2022-12-18T12:52:44;165940.84;;;5.65;78.07
1776;BME280;885;42.626;23.200;2022-12-18T12:55:18;165950.41;;;5.69;79.46
1776;BME280;885;42.626;23.200;2022-12-18T12:57:54;165946.31;;;5.67;78.99
1776;BME280;885;42.626;23.200;2022-12-18T13:00:25;165954.47;;;5.70;79.13
1776;BME280;885;42.626;23.200;2022-12-18T13:03:03;165932.59;;;5.62;79.63
1776;BME280;885;42.626;23.200;2022-12-18T13:05:39;165939.47;;;5.64;80.41
1776;BME280;885;42.626;23.200;2022-12-18T13:08:11;166311.56;;;5.66;83.97
1776;BME280;885;42.626;23.200;2022-12-18T13:10:39;165935.38;;;5.63;81.09
1776;BME280;885;42.626;23.200;2022-12-18T13:13:08;165959.94;;;5.72;80.48
1776;BME280;885;42.626;23.200;2022-12-18T13:15:38;165979.13;;;5.79;79.06
1776;BME280;885;42.626;23.200;2022-12-18T13:18:13;165950.41;;;5.69;79.49
1776;BME280;885;42.626;23.200;2022-12-18T13:20:42;165954.47;;;5.70;80.23
1776;BME280;885;42.626;23.200;2022-12-18T13:23:26;165949.00;;;5.68;81.05
1776;BME280;885;42.626;23.200;2022-12-18T13:25:54;165932.59;;;5.62;80.21
1776;BME280;885;42.626;23.200;2022-12-18T13:28:23;165923.03;;;5.58;80.51
1776;BME280;885;42.626;23.200;2022-12-18T13:30:55;165920.28;;;5.57;80.72
1776;BME280;885;42.626;23.200;2022-12-18T13:33:51;165902.50;;;5.51;79.99
1776;BME280;885;42.626;23.200;2022-12-18T13:36:36;165931.22;;;5.61;80.47